Time;durP1;ratioP1;P1;durP2;ratioP2;P2;SDS_P1;SDS_P2;PMS_P1;PMS_P2;Temp;Humidity;BMP_temperature;BMP_pressure;BME280_temperature;BME280_humidity;BME280_pressure;Samples;Min_cycle;Max_cycle;Signal;HPM_P1;HPM_P2
2022/12/24 00:01:13;;;;;;;;;;;;;;;10.88;70.12;99900.50;6216501;23;20003;-81
2022/12/24 00:04:16;;;;;;;;;;;;;;;10.88;69.78;99917.94;6197951;23;19914;-80
2022/12/24 00:07:18;;;;;;;;;;;;;;;10.83;69.92;99902.56;6216179;23;19962;-81
2022/12/24 00:10:21;;;;;;;;;;;;;;;10.83;69.78;99893.88;6216382;23;19991;-81
2022/12/24 00:13:24;;;;;;;;;;;;;;;10.84;69.74;99901.59;6216285;23;19970;-81
2022/12/24 00:16:27;;;;;;;;;;;;;;;10.85;69.06;99912.94;6216297;23;20246;-81
2022/12/24 00:19:30;;;;;;;;;;;;;;;10.81;68.87;99904.41;6216243;23;19957;-82
2022/12/24 00:22:32;;;;;;;;;;;;;;;10.76;68.81;99919.56;6216252;23;19939;-80
2022/12/24 00:25:35;;;;;;;;;;;;;;;10.82;68.17;99926.22;6216180;23;20011;-81
2022/12/24 00:28:39;;;;;;;;;;;;;;;10.87;67.72;99930.19;6216224;23;20296;-83
2022/12/24 00:31:42;;;;;;;;;;;;;;;10.87;67.27;99947.66;6216128;23;19918;-81
2022/12/24 00:34:45;;;;;;;;;;;;;;;10.80;67.83;99941.97;6216122;23;19919;-82
2022/12/24 00:37:48;;;;;;;;;;;;;;;10.82;67.59;99944.50;6216181;23;19914;-82
2022/12/24 00:40:56;;;;;;;;;;;;;;;10.75;67.88;99933.56;6216144;23;19977;-81
2022/12/24 00:44:01;;;;;;;;;;;;;;;10.80;67.51;99935.91;6216046;23;19915;-81
2022/12/24 00:47:04;;;;;;;;;;;;;;;10.76;67.96;99930.03;6216050;23;19938;-82
2022/12/24 00:50:07;;;;;;;;;;;;;;;10.77;67.59;99934.31;6197410;23;19915;-81
2022/12/24 00:53:10;;;;;;;;;;;;;;;10.74;67.73;99938.91;6215945;23;19918;-81
2022/12/24 00:56:12;;;;;;;;;;;;;;;10.70;67.92;99953.94;6214934;23;19952;-81
2022/12/24 00:59:15;;;;;;;;;;;;;;;10.67;68.16;99951.53;6215994;23;20253;-81
2022/12/24 01:02:18;;;;;;;;;;;;;;;10.64;67.98;99957.78;6215855;23;20285;-81
2022/12/24 01:05:22;;;;;;;;;;;;;;;10.66;68.43;99957.69;6215792;23;20253;-81
2022/12/24 01:08:25;;;;;;;;;;;;;;;10.59;68.88;99949.38;6215835;23;19938;-80
2022/12/24 01:11:28;;;;;;;;;;;;;;;10.57;69.26;99956.47;6215789;23;19963;-80
2022/12/24 01:14:30;;;;;;;;;;;;;;;10.51;69.63;99959.47;6215827;23;19915;-80
2022/12/24 01:17:34;;;;;;;;;;;;;;;10.47;69.92;99982.34;6215782;23;19955;-80
2022/12/24 01:20:37;;;;;;;;;;;;;;;10.60;69.13;99976.38;6215744;23;19914;-81
2022/12/24 01:23:39;;;;;;;;;;;;;;;10.61;69.57;99967.59;6215840;23;19963;-80
2022/12/24 01:26:44;;;;;;;;;;;;;;;10.52;70.03;99975.97;6215736;23;20390;-80
2022/12/24 01:29:47;;;;;;;;;;;;;;;10.49;70.72;99971.78;6215759;23;19914;-80
2022/12/24 01:32:49;;;;;;;;;;;;;;;10.46;71.36;99979.81;6215643;23;19919;-80
2022/12/24 01:35:53;;;;;;;;;;;;;;;10.50;71.18;99989.16;6215772;23;19958;-80
2022/12/24 01:38:56;;;;;;;;;;;;;;;10.38;71.99;99995.13;6215713;23;19914;-79
2022/12/24 01:45:30;;;;;;;;;;;;;;;10.20;73.80;100008.28;6215716;23;19914;-81
2022/12/24 01:48:36;;;;;;;;;;;;;;;10.26;72.88;100004.53;6215631;23;19915;-81
2022/12/24 01:51:43;;;;;;;;;;;;;;;10.31;72.91;100015.56;6215585;23;19914;-81
2022/12/24 01:54:48;;;;;;;;;;;;;;;10.30;72.73;100015.63;6215659;23;19915;-81
2022/12/24 01:57:54;;;;;;;;;;;;;;;10.30;73.09;100013.84;6215615;23;20337;-81
2022/12/24 02:00:57;;;;;;;;;;;;;;;10.31;73.86;100017.34;6215641;23;19914;-80
2022/12/24 02:04:04;;;;;;;;;;;;;;;10.28;74.33;100020.13;6215550;23;20257;-81
2022/12/24 02:07:07;;;;;;;;;;;;;;;10.16;74.79;100021.66;6215463;23;19918;-81
2022/12/24 02:10:11;;;;;;;;;;;;;;;10.16;74.22;100021.66;6215570;23;20372;-81
2022/12/24 02:13:16;;;;;;;;;;;;;;;10.16;74.63;100025.09;6215451;23;19962;-82
2022/12/24 02:16:44;;;;;;;;;;;;;;;10.04;75.88;100035.41;6215620;23;20297;-81
2022/12/24 02:20:21;;;;;;;;;;;;;;;9.90;76.83;100037.06;6197895;23;19915;-81
2022/12/24 02:23:43;;;;;;;;;;;;;;;9.76;77.90;100042.19;6215554;23;19919;-80
2022/12/24 02:26:59;;;;;;;;;;;;;;;9.76;78.46;100047.44;6215399;23;19915;-82
2022/12/24 02:30:02;;;;;;;;;;;;;;;9.82;77.61;100047.06;6215441;23;19914;-82
2022/12/24 02:33:09;;;;;;;;;;;;;;;9.94;77.06;100053.38;6217180;23;19953;-82
2022/12/24 02:36:22;;;;;;;;;;;;;;;10.08;76.75;100042.13;6217336;23;19915;-82
2022/12/24 02:39:39;;;;;;;;;;;;;;;10.13;76.22;100046.16;6217254;23;19918;-80
2022/12/24 02:42:44;;;;;;;;;;;;;;;10.16;76.38;100045.16;6217219;23;19914;-80
2022/12/24 02:45:51;;;;;;;;;;;;;;;10.19;76.16;100043.22;6216841;23;19915;-80
2022/12/24 02:48:55;;;;;;;;;;;;;;;10.15;76.55;100044.31;6214791;23;19994;-80
2022/12/24 02:51:58;;;;;;;;;;;;;;;10.16;76.59;100058.22;6215020;23;19923;-80
2022/12/24 02:55:06;;;;;;;;;;;;;;;10.21;76.46;100056.16;6215646;23;19955;-80
2022/12/24 02:58:15;;;;;;;;;;;;;;;10.15;76.72;100070.44;6217069;23;19915;-80
2022/12/24 03:01:32;;;;;;;;;;;;;;;10.21;76.89;100074.44;6217072;23;19915;-80
2022/12/24 03:04:51;;;;;;;;;;;;;;;10.21;75.97;100066.63;6217001;23;19963;-80
2022/12/24 03:08:12;;;;;;;;;;;;;;;10.23;76.01;100065.59;6216788;23;19982;-80
2022/12/24 03:11:16;;;;;;;;;;;;;;;10.21;76.13;100074.44;6216851;23;19915;-80
2022/12/24 03:14:21;;;;;;;;;;;;;;;10.23;75.86;100073.44;6217014;23;19918;-80
2022/12/24 03:17:24;;;;;;;;;;;;;;;10.23;75.89;100083.88;6216936;23;19990;-80
2022/12/24 03:20:31;;;;;;;;;;;;;;;10.25;75.63;100074.19;6216871;23;19978;-80
2022/12/24 03:23:35;;;;;;;;;;;;;;;10.28;75.35;100062.78;6216874;23;19934;-81
2022/12/24 03:26:39;;;;;;;;;;;;;;;10.27;75.38;100076.75;6198448;23;19935;-80
2022/12/24 03:29:43;;;;;;;;;;;;;;;10.33;75.24;100084.22;6216865;23;19914;-80
2022/12/24 03:32:46;;;;;;;;;;;;;;;10.27;75.64;100100.25;6197045;23;19918;-82
2022/12/24 03:35:49;;;;;;;;;;;;;;;10.27;75.81;100095.03;6216774;23;19915;-83
2022/12/24 03:38:52;;;;;;;;;;;;;;;10.23;76.12;100098.72;6216795;23;19978;-83
2022/12/24 03:41:55;;;;;;;;;;;;;;;10.18;76.74;100099.00;6216397;23;19918;-81
2022/12/24 03:44:58;;;;;;;;;;;;;;;10.19;76.82;100102.47;6216640;23;19914;-82
2022/12/24 03:48:01;;;;;;;;;;;;;;;10.23;76.52;100098.72;6216578;23;19914;-83
2022/12/24 03:51:04;;;;;;;;;;;;;;;10.20;76.88;100098.91;6216660;23;19950;-81
2022/12/24 03:54:07;;;;;;;;;;;;;;;10.12;77.47;100106.34;6216664;23;19966;-81
2022/12/24 03:57:10;;;;;;;;;;;;;;;10.12;77.79;100116.81;6216888;23;20249;-81
2022/12/24 04:00:13;;;;;;;;;;;;;;;10.11;77.96;100120.31;6216596;23;19915;-81
2022/12/24 04:03:16;;;;;;;;;;;;;;;10.14;78.35;100141.06;6216439;23;19918;-82
2022/12/24 04:06:19;;;;;;;;;;;;;;;10.11;78.76;100130.78;6216212;23;19934;-82
2022/12/24 04:09:22;;;;;;;;;;;;;;;10.06;79.08;100128.44;6216400;23;19914;-81
2022/12/24 04:12:25;;;;;;;;;;;;;;;10.07;79.10;100137.13;6216298;23;19923;-81
2022/12/24 04:15:27;;;;;;;;;;;;;;;10.06;79.29;100144.13;6216406;23;19995;-81
2022/12/24 04:18:30;;;;;;;;;;;;;;;10.13;79.11;100140.22;6216251;23;19954;-81
2022/12/24 04:21:33;;;;;;;;;;;;;;;10.15;79.36;100133.16;6216310;23;19914;-81
2022/12/24 04:24:36;;;;;;;;;;;;;;;10.16;79.47;100144.44;6216248;23;20234;-82
2022/12/24 04:27:39;;;;;;;;;;;;;;;10.21;79.39;100143.25;6180472;23;19914;-82
2022/12/24 04:30:42;;;;;;;;;;;;;;;10.18;79.78;100147.81;6216215;23;19915;-82
2022/12/24 04:33:45;;;;;;;;;;;;;;;10.16;80.06;100152.28;6215872;23;20002;-81
2022/12/24 04:36:48;;;;;;;;;;;;;;;10.18;80.11;100139.97;6197890;23;20297;-82
2022/12/24 04:39:52;;;;;;;;;;;;;;;10.05;80.70;100154.63;6216159;23;19929;-82
2022/12/24 04:42:54;;;;;;;;;;;;;;;10.04;80.98;100159.03;6216210;23;19919;-83
2022/12/24 04:46:05;;;;;;;;;;;;;;;10.01;81.23;100157.41;6216170;23;19978;-84
2022/12/24 04:49:08;;;;;;;;;;;;;;;10.00;81.23;100166.19;6215982;23;19919;-83
2022/12/24 05:04:00;;;;;;;17.58;3.40;;;;;;;9.88;82.48;100150.34;5044784;28;20786;-77
2022/12/24 05:07:08;;;;;;;19.42;2.90;;;;;;;9.90;82.28;100157.19;5044699;28;20075;-77
2022/12/24 05:10:11;;;;;;;19.17;3.22;;;;;;;9.92;82.31;100157.09;5026439;28;20056;-77
2022/12/24 05:13:14;;;;;;;12.43;2.92;;;;;;;9.93;82.37;100166.63;5025572;28;20048;-77
2022/12/24 05:16:21;;;;;;;17.63;3.58;;;;;;;9.93;82.31;100161.41;5032020;28;20518;-76
2022/12/24 05:19:24;;;;;;;14.50;2.55;;;;;;;9.67;83.23;100171.50;5045441;28;20079;-76
2022/12/24 05:29:14;;;;;;;25.95;4.95;;;;;;;9.83;83.82;100163.69;5038805;28;20074;-77
2022/12/24 06:30:53;;;;;;;12.70;3.55;;;;;;;9.38;93.69;100255.69;5979670;23;3161447;-76
2022/12/24 06:39:10;;;;;;;15.38;3.35;;;;;;;9.08;94.51;100249.34;6070692;23;20041;-76
2022/12/24 06:54:07;;;;;;;14.57;3.42;;;;;;;8.65;96.06;100271.50;5126288;27;20724;-78
2022/12/24 06:57:49;;;;;;;;;;;;;;;;;;;;;
2022/12/24 07:01:19;;;;;;;20.58;4.35;;;;;;;8.71;94.51;100278.16;5120313;28;20046;-77
2022/12/24 07:04:46;;;;;;;16.98;4.93;;;;;;;8.83;94.65;100280.19;5127368;28;20070;-76
2022/12/24 07:07:59;;;;;;;14.73;3.00;;;;;;;8.55;94.90;100276.31;5127639;28;20080;-77
2022/12/24 07:11:06;;;;;;;10.93;2.90;;;;;;;8.71;95.26;100286.00;5113110;28;20047;-78
2022/12/24 07:14:17;;;;;;;14.18;3.45;;;;;;;8.74;94.45;100288.44;5106326;28;20072;-76
2022/12/24 07:22:28;;;;;;;14.57;4.35;;;;;;;8.66;95.06;100303.63;5102276;28;20505;-79
2022/12/24 07:43:02;;;;;;;14.43;3.58;;;;;;;8.61;94.76;100312.53;5150889;27;20329;-78
2022/12/24 07:46:05;;;;;;;13.25;4.32;;;;;;;8.61;94.68;100322.94;5121120;28;20088;-79
2022/12/24 07:49:10;;;;;;;23.75;6.25;;;;;;;8.70;94.81;100318.19;5128383;28;20046;-80
2022/12/24 07:52:14;;;;;;;49.83;12.52;;;;;;;8.71;95.06;100333.78;5130007;28;20045;-80
2022/12/24 07:55:21;;;;;;;57.97;33.60;;;;;;;8.88;94.23;100346.00;5119067;28;20100;-78
2022/12/24 07:58:26;;;;;;;28.52;12.15;;;;;;;8.90;93.60;100354.56;5130889;28;20086;-78
2022/12/24 08:01:30;;;;;;;24.98;9.98;;;;;;;8.88;93.30;100356.44;5130757;28;20124;-78
2022/12/24 08:04:35;;;;;;;;;;;;;;;8.91;92.68;100356.28;5131290;28;20475;-80
2022/12/24 08:07:39;;;;;;;24.38;11.10;;;;;;;8.82;93.30;100361.94;5129881;28;19926;-78
2022/12/24 08:10:43;;;;;;;19.88;8.38;;;;;;;8.79;93.44;100373.34;5128722;28;20067;-77
2022/12/24 08:13:47;;;;;;;20.20;7.00;;;;;;;8.80;93.45;100368.97;5129347;28;20049;-78
2022/12/24 08:16:50;;;;;;;21.70;5.65;;;;;;;8.73;93.64;100367.56;5129804;28;20157;-79
2022/12/24 08:19:53;;;;;;;20.23;6.63;;;;;;;8.84;95.59;100365.31;5130448;28;20050;-76
2022/12/24 08:22:57;;;;;;;21.73;7.55;;;;;;;8.91;94.29;100376.31;5130311;28;20088;-75
2022/12/24 08:26:00;;;;;;;22.23;6.13;;;;;;;8.93;93.95;100366.63;5130264;28;20549;-77
2022/12/24 08:29:05;;;;;;;17.15;6.53;;;;;;;8.82;93.99;100372.34;5130278;28;20043;-77
2022/12/24 08:32:08;;;;;;;25.42;13.20;;;;;;;8.72;94.31;100381.53;5129833;28;20411;-80
2022/12/24 08:35:11;;;;;;;;;;;;;;;8.95;93.79;100383.91;5097652;28;20093;-79
2022/12/24 08:38:15;;;;;;;20.42;10.07;;;;;;;8.89;93.61;100378.97;5109186;28;19965;-78
2022/12/24 08:41:18;;;;;;;23.17;10.52;;;;;;;8.90;93.57;100383.25;5108368;28;20054;-77
2022/12/24 08:44:22;;;;;;;;;;;;;;;8.78;94.37;100396.91;5095438;28;20047;-77
2022/12/24 08:47:31;;;;;;;25.38;13.98;;;;;;;8.67;95.39;100396.53;5070927;28;20422;-85
2022/12/24 08:50:40;;;;;;;48.30;30.38;;;;;;;8.87;94.37;100404.28;5094927;28;20047;-78
2022/12/24 08:53:44;;;;;;;25.30;13.90;;;;;;;8.80;95.11;100410.69;5094975;28;20058;-79
2022/12/24 08:56:48;;;;;;;24.75;11.70;;;;;;;8.77;95.00;100405.63;5071085;28;20436;-78
2022/12/24 08:59:52;;;;;;;21.90;8.05;;;;;;;8.83;95.10;100413.16;5068362;28;20536;-80
2022/12/24 09:03:03;;;;;;;18.75;7.65;;;;;;;8.97;95.79;100412.53;5069476;28;20090;-79
2022/12/24 09:06:07;;;;;;;30.27;15.52;;;;;;;8.94;95.37;100410.91;5057494;28;20543;-80
2022/12/24 09:09:10;;;;;;;21.23;7.22;;;;;;;9.13;94.04;100408.25;5069529;28;20051;-80
2022/12/24 09:12:14;;;;;;;;;;;;;;;9.17;93.57;100425.44;5080763;28;20093;-80
2022/12/24 09:15:18;;;;;;;15.93;6.25;;;;;;;9.12;94.45;100426.56;5089513;28;19978;-80
2022/12/24 09:18:22;;;;;;;16.27;5.10;;;;;;;9.27;93.45;100426.69;5080540;28;20405;-82
2022/12/24 09:21:25;;;;;;;13.50;3.63;;;;;;;9.36;93.83;100430.63;5070413;28;20039;-80
2022/12/24 09:24:28;;;;;;;;;;;;;;;9.58;92.03;100430.41;5069683;28;20101;-84
2022/12/24 09:27:32;;;;;;;;;;;;;;;9.52;93.91;100428.09;5070077;28;19915;-80
2022/12/24 09:30:36;;;;;;;14.70;4.17;;;;;;;9.46;94.22;100436.25;5068961;28;19931;-84
2022/12/24 09:33:42;;;;;;;16.27;3.90;;;;;;;9.48;93.02;100439.63;5068996;28;20131;-81
2022/12/24 09:36:45;;;;;;;19.98;4.20;;;;;;;9.84;90.28;100447.38;5069016;28;20435;-80
2022/12/24 09:39:48;;;;;;;;;;;;;;;10.02;89.24;100456.06;5069529;28;20102;-84
2022/12/24 09:42:55;;;;;;;16.73;3.15;;;;;;;10.07;89.14;100467.09;5069363;28;19924;-84
2022/12/24 09:46:27;;;;;;;14.13;3.08;;;;;;;10.09;88.33;100462.66;5077078;28;20059;-82
2022/12/24 09:49:52;;;;;;;16.40;3.35;;;;;;;10.14;87.42;100475.47;5087645;28;20040;-83
2022/12/24 09:53:33;;;;;;;16.83;4.10;;;;;;;10.17;87.28;100472.72;5078778;28;20055;-82
2022/12/24 09:56:54;;;;;;;22.00;3.60;;;;;;;10.23;87.19;100477.63;5068244;28;20075;-80
2022/12/24 09:59:57;;;;;;;16.15;3.80;;;;;;;10.18;86.74;100472.63;5065975;28;20455;-80
2022/12/24 10:03:16;;;;;;;12.73;3.40;;;;;;;10.22;86.54;100479.38;5068380;28;20557;-81
2022/12/24 10:06:23;;;;;;;19.65;4.13;;;;;;;10.32;85.83;100489.41;5067881;28;20430;-81
2022/12/24 10:09:30;;;;;;;14.68;4.15;;;;;;;10.41;86.09;100494.16;5068075;28;20193;-78
2022/12/24 10:12:45;;;;;;;10.77;3.00;;;;;;;10.52;85.42;100491.81;5067962;28;20580;-80
2022/12/24 10:16:04;;;;;;;11.45;3.03;;;;;;;10.52;85.85;100491.81;5067819;28;20055;-80
2022/12/24 10:19:51;;;;;;;18.15;3.90;;;;;;;10.54;85.18;100499.59;5068875;28;20417;-81
2022/12/24 10:23:18;;;;;;;18.50;5.55;;;;;;;10.43;85.51;100498.38;5024699;28;20067;-80
2022/12/24 10:26:28;;;;;;;17.65;4.65;;;;;;;10.47;84.87;100507.75;5068659;28;20055;-80
2022/12/24 10:29:36;;;;;;;13.80;4.03;;;;;;;10.46;85.12;100507.81;5068984;28;20070;-80
2022/12/24 10:32:41;;;;;;;20.90;3.75;;;;;;;10.52;83.84;100494.44;5068811;28;20047;-80
2022/12/24 10:36:14;;;;;;;21.38;4.22;;;;;;;10.45;84.13;100485.22;5067702;28;20055;-81
2022/12/24 10:39:21;;;;;;;17.23;3.70;;;;;;;10.44;84.09;100497.47;5067419;28;20039;-81
2022/12/24 10:42:43;;;;;;;19.75;6.13;;;;;;;10.50;83.80;100500.66;5067165;28;20056;-81
2022/12/24 10:45:58;;;;;;;21.00;4.00;;;;;;;10.56;83.34;100502.94;5069308;28;20122;-80
2022/12/24 10:49:05;;;;;;;16.10;3.60;;;;;;;10.48;83.54;100501.59;5069096;28;20103;-80
2022/12/24 10:52:12;;;;;;;23.25;5.57;;;;;;;10.45;83.14;100506.97;5089357;28;20074;-81
2022/12/24 10:55:16;;;;;;;17.40;4.15;;;;;;;10.51;83.40;100515.44;5089573;28;20093;-81
2022/12/24 10:58:20;;;;;;;18.77;4.28;;;;;;;10.61;83.52;100516.63;5088384;28;20259;-82
2022/12/24 11:01:45;;;;;;;19.35;4.05;;;;;;;10.70;82.30;100516.16;5067539;28;20429;-83
2022/12/24 11:04:49;;;;;;;28.00;8.55;;;;;;;10.96;81.54;100509.53;5069780;28;20063;-80
2022/12/24 11:08:05;;;;;;;21.65;6.30;;;;;;;11.21;79.53;100505.59;5055358;28;20154;-80
2022/12/24 11:11:14;;;;;;;19.45;7.00;;;;;;;11.12;78.94;100517.38;5067722;28;20543;-82
2022/12/24 11:14:20;;;;;;;32.13;20.58;;;;;;;11.10;78.71;100503.53;5067091;28;20472;-82
2022/12/24 11:17:34;;;;;;;21.67;10.70;;;;;;;11.10;78.20;100508.78;5054557;28;20470;-87
2022/12/24 11:20:37;;;;;;;;;;;;;;;11.18;78.38;100502.19;5067440;28;20089;-83
2022/12/24 11:23:49;;;;;;;21.55;9.35;;;;;;;11.13;77.98;100508.59;5066765;28;19919;-86
2022/12/24 11:26:52;;;;;;;22.98;8.38;;;;;;;11.13;78.49;100498.97;5067046;28;20079;-83
2022/12/24 11:30:14;;;;;;;32.35;15.85;;;;;;;11.17;78.84;100503.13;5073306;28;20031;-83
2022/12/24 11:33:19;;;;;;;21.73;8.18;;;;;;;11.25;78.52;100491.38;5076567;28;20089;-87
2022/12/24 11:36:25;;;;;;;23.50;7.35;;;;;;;11.25;78.77;100489.59;5066736;28;20457;-85
2022/12/24 11:39:39;;;;;;;20.20;5.88;;;;;;;11.34;78.59;100494.34;5071717;28;20143;-82
2022/12/24 11:42:52;;;;;;;19.27;5.00;;;;;;;11.36;78.57;100489.03;5047589;28;20056;-84
2022/12/24 11:46:03;;;;;;;14.98;3.92;;;;;;;11.35;78.92;100493.41;5072028;28;20432;-84
2022/12/24 11:49:29;;;;;;;18.10;4.63;;;;;;;11.49;78.58;100490.03;5071767;28;20109;-84
2022/12/24 11:52:36;;;;;;;18.50;5.50;;;;;;;11.48;78.53;100487.47;5071648;28;20066;-85
2022/12/24 11:55:46;;;;;;;18.23;3.72;;;;;;;11.44;78.20;100488.59;5063166;28;20301;-75
2022/12/24 11:58:56;;;;;;;23.13;6.13;;;;;;;11.38;77.40;100477.53;5083954;28;20039;-75
2022/12/24 12:02:09;;;;;;;42.08;7.68;;;;;;;11.41;77.94;100479.97;5065831;28;20035;-75
2022/12/24 12:05:23;;;;;;;20.27;4.13;;;;;;;11.41;77.22;100485.19;5067000;28;20139;-74
2022/12/24 12:08:30;;;;;;;13.45;3.72;;;;;;;11.54;76.40;100467.03;5068368;28;20047;-73
2022/12/24 12:11:37;;;;;;;17.63;5.20;;;;;;;11.47;76.61;100472.72;5083943;28;20059;-76
2022/12/24 12:19:11;;;;;;;15.95;3.80;;;;;;;11.51;75.33;100482.06;5067847;28;20126;-73
2022/12/24 12:22:31;;;;;;;22.35;4.25;;;;;;;11.50;74.90;100478.59;5068163;28;20074;-74
2022/12/24 12:25:43;;;;;;;18.35;3.92;;;;;;;11.56;74.94;100480.03;5068897;28;20067;-73
2022/12/24 12:28:53;;;;;;;16.20;3.95;;;;;;;11.48;73.82;100479.63;5047337;28;20409;-72
2022/12/24 12:32:09;;;;;;;21.05;3.90;;;;;;;11.64;74.61;100483.03;5070722;28;20114;-73
2022/12/24 12:35:20;;;;;;;21.85;6.13;;;;;;;11.64;74.38;100483.03;5071024;28;20048;-72
2022/12/24 12:38:49;;;;;;;26.95;12.02;;;;;;;11.65;74.36;100484.75;5070802;28;20051;-72
2022/12/24 12:42:23;;;;;;;20.67;9.82;;;;;;;11.71;74.75;100483.53;5070186;28;20142;-74
2022/12/24 12:45:55;;;;;;;15.77;5.40;;;;;;;11.65;75.23;100495.22;5069724;28;20127;-73
2022/12/24 12:49:10;;;;;;;17.38;5.85;;;;;;;11.69;75.71;100499.34;5069035;28;20074;-74
2022/12/24 12:52:19;;;;;;;15.13;3.83;;;;;;;11.57;74.56;100498.28;5079804;28;20547;-74
2022/12/24 12:55:39;;;;;;;19.58;4.43;;;;;;;11.54;74.34;100497.59;5070764;28;20055;-74
2022/12/24 12:58:57;;;;;;;13.93;4.75;;;;;;;11.49;74.68;100503.13;5070656;28;20098;-74
2022/12/24 13:02:16;;;;;;;13.02;3.08;;;;;;;11.48;74.21;100509.25;5070489;28;20059;-74
2022/12/24 13:05:36;;;;;;;14.85;3.40;;;;;;;11.48;74.75;100505.81;5088677;28;20113;-74
2022/12/24 13:09:04;;;;;;;28.30;12.43;;;;;;;11.46;74.86;100505.06;5083328;28;20107;-74
2022/12/24 13:12:28;;;;;;;19.80;7.47;;;;;;;11.50;75.16;100511.81;5068159;28;20508;-74
2022/12/24 13:16:02;;;;;;;26.40;11.27;;;;;;;11.49;76.34;100510.13;5069423;28;20167;-74
2022/12/24 13:19:06;;;;;;;19.05;7.32;;;;;;;11.52;76.56;100513.41;5055983;28;20082;-73
2022/12/24 13:22:16;;;;;;;19.05;5.13;;;;;;;11.51;76.70;100503.00;5070375;28;20054;-76
2022/12/24 13:25:39;;;;;;;20.95;7.20;;;;;;;11.61;76.47;100520.75;5069074;28;20178;-74
2022/12/24 13:28:43;;;;;;;26.13;10.88;;;;;;;11.77;74.98;100525.97;5056528;28;20098;-72
2022/12/24 13:31:47;;;;;;;19.23;6.13;;;;;;;11.64;74.34;100527.56;5069509;28;20063;-73
2022/12/24 13:34:52;;;;;;;16.70;4.60;;;;;;;11.57;74.77;100528.84;5069275;28;20460;-73
2022/12/24 13:38:27;;;;;;;18.48;9.13;;;;;;;11.53;74.63;100535.22;5068516;28;20129;-72
2022/12/24 13:41:39;;;;;;;18.90;6.78;;;;;;;11.50;74.37;100532.75;5067965;28;20063;-73
2022/12/24 13:44:43;;;;;;;16.02;5.15;;;;;;;11.46;74.36;100532.09;5055923;28;20047;-73
2022/12/24 13:47:46;;;;;;;;;;;;;;;11.51;73.63;100534.44;5068309;28;20134;-74
2022/12/24 13:50:52;;;;;;;16.05;3.90;;;;;;;11.60;73.51;100528.69;5065838;28;19970;-73
2022/12/24 13:54:27;;;;;;;21.27;6.00;;;;;;;11.52;73.49;100515.16;5068685;28;20051;-75
2022/12/24 13:57:43;;;;;;;19.73;4.55;;;;;;;11.62;73.59;100516.34;5057274;28;20493;-74
2022/12/24 14:01:07;;;;;;;20.85;8.88;;;;;;;11.54;72.65;100529.88;5067989;28;20511;-74
2022/12/24 14:04:23;;;;;;;30.88;14.88;;;;;;;11.60;72.90;100533.94;5068365;28;20093;-73
2022/12/24 14:07:27;;;;;;;16.65;5.93;;;;;;;11.56;73.64;100532.41;5067893;28;20043;-72
2022/12/24 14:10:38;;;;;;;20.60;5.85;;;;;;;11.54;73.94;100539.50;5070544;28;20488;-73
2022/12/24 14:13:41;;;;;;;19.00;3.90;;;;;;;11.63;72.40;100539.81;5068736;28;20126;-74
2022/12/24 14:16:50;;;;;;;25.38;9.68;;;;;;;11.63;72.36;100536.38;5067895;28;20416;-74
2022/12/24 14:19:57;;;;;;;54.90;35.00;;;;;;;11.63;73.56;100537.22;5067373;28;20520;-74
2022/12/24 14:23:04;;;;;;;46.95;30.95;;;;;;;11.66;72.66;100545.84;5043379;28;20039;-74
2022/12/24 14:26:15;;;;;;;43.75;30.35;;;;;;;11.67;72.57;100547.50;5067742;28;20175;-74
2022/12/24 14:30:10;;;;;;;25.45;10.07;;;;;;;11.67;72.21;100548.34;5067906;28;20047;-74
2022/12/24 14:33:39;;;;;;;75.20;46.15;;;;;;;11.63;72.86;100544.22;5055013;28;20150;-73
2022/12/24 14:36:44;;;;;;;39.10;18.70;;;;;;;11.56;72.60;100548.13;5067639;28;20393;-75
2022/12/24 14:39:55;;;;;;;55.70;29.42;;;;;;;11.56;72.92;100543.72;5067103;28;20051;-73
2022/12/24 14:43:35;;;;;;;47.00;23.17;;;;;;;11.52;72.99;100538.72;5067528;28;20079;-73
2022/12/24 14:46:53;;;;;;;55.90;29.23;;;;;;;11.45;73.47;100537.38;5062025;28;20147;-73
2022/12/24 14:50:29;;;;;;;87.07;55.60;;;;;;;11.50;73.95;100553.69;5072568;28;20058;-73
2022/12/24 14:53:48;;;;;;;32.15;13.27;;;;;;;11.34;74.71;100562.41;5072149;28;20094;-73
2022/12/24 14:57:10;;;;;;;55.22;37.60;;;;;;;11.41;75.60;100570.75;5072623;28;20050;-73
2022/12/24 15:00:20;;;;;;;49.80;24.60;;;;;;;11.34;76.36;100579.88;5072534;28;20097;-74
2022/12/24 15:03:27;;;;;;;43.25;20.48;;;;;;;11.29;75.95;100577.50;5070925;28;20040;-75
2022/12/24 15:06:33;;;;;;;73.60;51.30;;;;;;;11.28;76.44;100573.19;5071292;28;20071;-73
2022/12/24 15:09:39;;;;;;;687.10;601.83;;;;;;;11.10;79.66;100587.28;5071771;28;20047;-74
2022/12/24 15:12:43;;;;;;;639.35;555.33;;;;;;;11.12;79.14;100595.91;5071179;28;20405;-75
2022/12/24 15:15:49;;;;;;;270.08;216.27;;;;;;;10.93;79.53;100602.09;5071722;28;20655;-71
2022/12/24 15:19:03;;;;;;;439.40;364.55;;;;;;;11.00;79.48;100615.69;5072170;28;20456;-75
2022/12/24 15:22:35;;;;;;;378.23;302.80;;;;;;;10.95;79.53;100620.34;5071829;28;20129;-75
2022/12/24 15:25:38;;;;;;;155.07;105.45;;;;;;;11.01;79.40;100624.38;5072052;28;20090;-74
2022/12/24 15:28:42;;;;;;;95.57;68.80;;;;;;;11.07;79.46;100618.84;5072084;28;20051;-75
2022/12/24 15:31:52;;;;;;;115.20;73.15;;;;;;;10.97;79.84;100628.09;5071829;28;20069;-75
2022/12/24 15:34:55;;;;;;;110.30;77.60;;;;;;;10.85;80.05;100621.75;5071988;28;20051;-75
2022/12/24 15:38:00;;;;;;;117.70;66.18;;;;;;;10.80;80.75;100632.44;5059502;28;20062;-75
2022/12/24 15:42:11;;;;;;;136.95;82.82;;;;;;;10.74;81.28;100631.91;5071560;28;20574;-75
2022/12/24 15:48:48;;;;;;;45.35;28.77;;;;;;;10.55;81.62;100635.44;5062139;28;20070;-74
2022/12/24 15:52:05;;;;;;;160.50;145.70;;;;;;;10.62;82.67;100644.66;5059953;28;20051;-75
2022/12/24 15:55:58;;;;;;;96.95;68.50;;;;;;;10.63;82.51;100658.63;5075627;28;20063;-74
2022/12/24 15:59:19;;;;;;;31.33;14.90;;;;;;;10.50;82.85;100660.13;4974467;28;20054;-74
2022/12/24 16:02:39;;;;;;;117.00;78.55;;;;;;;10.23;84.05;100665.78;4991631;28;20091;-75
2022/12/24 16:05:45;;;;;;;406.27;324.20;;;;;;;10.25;84.24;100659.56;5075345;28;20619;-74
2022/12/24 16:08:52;;;;;;;38.03;22.55;;;;;;;10.27;84.03;100659.50;5051843;28;20060;-75
2022/12/24 16:11:55;;;;;;;363.65;241.43;;;;;;;10.37;83.71;100660.75;5074920;28;20123;-74
2022/12/24 16:14:59;;;;;;;396.23;272.77;;;;;;;10.41;83.68;100667.53;5073218;28;20548;-74
2022/12/24 16:18:03;;;;;;;265.33;174.50;;;;;;;10.23;84.05;100657.94;5073233;28;20511;-74
2022/12/24 16:21:07;;;;;;;802.13;513.92;;;;;;;10.25;84.09;100663.94;5073062;28;20405;-74
2022/12/24 16:24:29;;;;;;;465.83;266.92;;;;;;;10.14;84.34;100653.97;5073272;28;20108;-74
2022/12/24 16:27:32;;;;;;;97.53;54.53;;;;;;;10.08;84.89;100663.88;5073561;28;20105;-74
2022/12/24 16:30:36;;;;;;;141.38;88.20;;;;;;;10.17;84.43;100658.22;5074863;28;20043;-74
2022/12/24 16:33:39;;;;;;;;;;;;;;;10.16;84.59;100667.84;5077466;28;20161;-75
2022/12/24 16:36:44;;;;;;;156.10;89.07;;;;;;;9.97;85.47;100677.47;5093904;28;19922;-75
2022/12/24 16:39:47;;;;;;;150.50;92.10;;;;;;;10.02;85.20;100681.56;5094436;28;20063;-75
2022/12/24 16:46:12;;;;;;;603.67;377.48;;;;;;;9.90;84.74;100682.13;5092201;28;19920;-75
2022/12/24 16:49:18;;;;;;;270.52;158.07;;;;;;;9.84;85.50;100679.81;5094621;28;20043;-76
2022/12/24 16:52:27;;;;;;;198.68;105.55;;;;;;;9.83;85.50;100678.13;5094774;28;20073;-75
2022/12/24 16:55:32;;;;;;;458.70;265.85;;;;;;;9.85;85.52;100675.44;5095218;28;20090;-75
2022/12/24 16:58:35;;;;;;;202.75;116.55;;;;;;;9.49;87.50;100674.44;5082651;28;20060;-75
2022/12/24 17:01:38;;;;;;;209.75;109.53;;;;;;;9.73;86.03;100669.00;5094712;28;20043;-75
2022/12/24 17:04:43;;;;;;;204.40;151.45;;;;;;;9.66;85.70;100667.59;5094016;28;20079;-75
2022/12/24 17:07:46;;;;;;;224.40;179.30;;;;;;;9.59;86.51;100668.81;5094610;28;20074;-75
2022/12/24 17:10:50;;;;;;;;;;;;;;;9.41;86.12;100678.31;5094869;28;20101;-77
2022/12/24 17:13:53;;;;;;;92.97;67.72;;;;;;;9.28;86.87;100684.09;5082065;28;19933;-75
2022/12/24 17:16:57;;;;;;;;;;;;;;;9.31;86.45;100683.94;5094776;28;20043;-75